createdAt,value
2023-09-23T00:01:16.722Z,12.30
2023-09-23T00:03:44.722Z,12.30
2023-09-23T00:06:11.697Z,12.30
2023-09-23T00:08:40.772Z,12.30
2023-09-23T00:11:09.336Z,12.30
2023-09-23T00:13:37.020Z,12.30
2023-09-23T00:16:12.572Z,12.40
2023-09-23T00:18:39.592Z,12.40
2023-09-23T00:21:06.917Z,12.30
2023-09-23T00:23:33.896Z,12.30
2023-09-23T00:26:02.385Z,12.30
2023-09-23T00:28:31.636Z,12.30
2023-09-23T00:31:13.697Z,12.40
2023-09-23T00:33:40.833Z,12.40
2023-09-23T00:36:10.171Z,12.30
2023-09-23T00:38:38.601Z,12.30
2023-09-23T00:41:12.414Z,12.30
2023-09-23T00:43:39.493Z,12.30
2023-09-23T00:46:06.993Z,12.30
2023-09-23T00:48:41.182Z,12.30
2023-09-23T00:51:08.695Z,12.30
2023-09-23T00:53:37.094Z,12.30
2023-09-23T00:56:04.691Z,12.30
2023-09-23T00:58:31.809Z,12.30
2023-09-23T01:00:59.346Z,12.30
2023-09-23T01:03:26.539Z,12.30
2023-09-23T01:06:15.654Z,12.20
2023-09-23T01:08:47.086Z,12.20
2023-09-23T01:11:15.784Z,12.20
2023-09-23T01:13:44.399Z,12.20
2023-09-23T01:16:14.855Z,12.20
2023-09-23T01:18:47.223Z,12.20
2023-09-23T01:21:14.358Z,12.20
2023-09-23T01:23:45.100Z,12.10
2023-09-23T01:26:15.618Z,12.10
2023-09-23T01:28:42.636Z,12.10
2023-09-23T01:31:09.660Z,12.10
2023-09-23T01:33:37.095Z,12.10
2023-09-23T01:36:04.924Z,12.10
2023-09-23T01:38:32.728Z,12.10
2023-09-23T01:41:03.202Z,12.00
2023-09-23T01:43:30.434Z,12.00
2023-09-23T01:46:04.004Z,12.00
2023-09-23T01:48:31.237Z,12.00
2023-09-23T01:51:01.262Z,12.00
2023-09-23T01:53:29.533Z,12.00
2023-09-23T01:55:56.939Z,12.00
2023-09-23T01:58:24.206Z,12.00
2023-09-23T02:00:52.519Z,12.00
2023-09-23T02:03:19.623Z,11.90
2023-09-23T02:05:48.186Z,11.90
2023-09-23T02:08:17.081Z,11.90
2023-09-23T02:10:47.325Z,11.90
2023-09-23T02:13:14.470Z,11.80
2023-09-23T02:15:41.563Z,11.80
2023-09-23T02:18:08.545Z,11.80
2023-09-23T02:20:35.946Z,11.80
2023-09-23T02:23:03.837Z,11.80
2023-09-23T02:25:30.740Z,11.80
2023-09-23T02:27:58.328Z,11.80
2023-09-23T02:30:26.073Z,11.80
2023-09-23T02:32:53.144Z,11.80
2023-09-23T02:35:20.295Z,11.80
2023-09-23T02:37:51.989Z,11.90
2023-09-23T02:40:19.712Z,11.80
2023-09-23T02:42:48.989Z,11.90
2023-09-23T02:45:18.683Z,11.80
2023-09-23T02:47:46.413Z,11.90
2023-09-23T02:50:15.676Z,11.90
2023-09-23T02:52:46.217Z,11.80
2023-09-23T02:55:16.650Z,11.80
2023-09-23T02:57:51.219Z,11.80
2023-09-23T03:00:21.003Z,11.70
2023-09-23T03:02:56.542Z,11.70
2023-09-23T03:05:30.223Z,11.60
2023-09-23T03:07:59.877Z,11.60
2023-09-23T03:10:35.627Z,11.50
2023-09-23T03:13:06.888Z,11.50
2023-09-23T03:16:07.331Z,11.50
2023-09-23T03:18:35.743Z,11.40
2023-09-23T03:21:10.024Z,11.30
2023-09-23T03:23:41.556Z,11.30
2023-09-23T03:26:10.187Z,11.20
2023-09-23T03:28:39.987Z,11.20
2023-09-23T03:31:10.180Z,11.10
2023-09-23T03:33:38.310Z,11.10
2023-09-23T03:36:06.889Z,11.10
2023-09-23T03:38:34.441Z,11.00
2023-09-23T03:41:03.510Z,11.10
2023-09-23T03:43:30.759Z,11.00
2023-09-23T03:45:57.791Z,11.00
2023-09-23T03:48:24.756Z,11.00
2023-09-23T03:50:55.322Z,10.90
2023-09-23T03:53:23.427Z,10.90
2023-09-23T03:55:53.713Z,10.90
2023-09-23T03:58:20.783Z,10.90
2023-09-23T04:00:48.478Z,10.90
2023-09-23T04:03:15.998Z,10.90
2023-09-23T04:05:43.101Z,10.80
2023-09-23T04:08:10.590Z,10.80
2023-09-23T04:10:41.081Z,10.80
2023-09-23T04:13:08.382Z,10.80
2023-09-23T04:15:35.339Z,10.80
2023-09-23T04:18:06.885Z,10.70
2023-09-23T04:20:33.971Z,10.70
2023-09-23T04:23:01.016Z,10.70
2023-09-23T04:25:28.022Z,10.70
2023-09-23T04:27:55.704Z,10.70
2023-09-23T04:30:23.366Z,10.60
2023-09-23T04:32:51.091Z,10.60
2023-09-23T04:35:18.229Z,10.60
2023-09-23T04:37:45.598Z,10.60
2023-09-23T04:40:14.477Z,10.60
2023-09-23T04:42:42.983Z,10.60
2023-09-23T04:45:11.565Z,10.50
2023-09-23T04:47:39.526Z,10.50
2023-09-23T04:50:08.695Z,10.50
2023-09-23T04:52:36.535Z,10.40
2023-09-23T04:55:03.722Z,10.50
2023-09-23T04:57:30.833Z,10.50
2023-09-23T04:59:57.849Z,10.40
2023-09-23T05:02:24.874Z,10.40
2023-09-23T05:04:54.697Z,10.40
2023-09-23T05:07:22.700Z,10.40
2023-09-23T05:09:50.687Z,10.40
2023-09-23T05:12:18.695Z,10.40
2023-09-23T05:14:46.080Z,10.40
2023-09-23T05:17:16.797Z,10.40
2023-09-23T05:19:44.834Z,10.40
2023-09-23T05:22:11.891Z,10.40
2023-09-23T05:24:39.707Z,10.50
2023-09-23T05:27:06.790Z,10.60
2023-09-23T05:29:33.734Z,10.60
2023-09-23T05:32:01.778Z,10.60
2023-09-23T05:34:28.747Z,10.70
2023-09-23T05:36:55.702Z,10.80
2023-09-23T05:39:22.734Z,10.80
2023-09-23T05:41:53.059Z,10.90
2023-09-23T05:44:22.617Z,10.90
2023-09-23T05:46:49.867Z,11.00
2023-09-23T05:49:16.874Z,11.00
2023-09-23T05:51:45.314Z,11.10
2023-09-23T05:54:12.669Z,11.10
2023-09-23T05:56:39.915Z,11.10
2023-09-23T05:59:09.285Z,11.20
2023-09-23T06:01:39.969Z,11.20
2023-09-23T06:04:06.978Z,11.30
2023-09-23T06:06:34.192Z,11.30
2023-09-23T06:09:01.366Z,11.30
2023-09-23T06:11:28.299Z,11.30
2023-09-23T06:13:55.225Z,11.40
2023-09-23T06:16:22.230Z,11.40
2023-09-23T06:18:49.177Z,11.40
2023-09-23T06:21:16.219Z,11.50
2023-09-23T06:23:43.592Z,11.50
2023-09-23T06:26:11.476Z,11.50
2023-09-23T06:28:38.636Z,11.50
2023-09-23T06:31:09.793Z,11.60
2023-09-23T06:33:36.962Z,11.60
2023-09-23T06:36:05.548Z,11.70
2023-09-23T06:38:35.417Z,11.70
2023-09-23T06:41:02.355Z,11.80
2023-09-23T06:43:29.957Z,11.80
2023-09-23T06:46:00.707Z,11.80
2023-09-23T06:48:27.930Z,11.90
2023-09-23T06:51:02.142Z,12.00
2023-09-23T06:53:30.932Z,12.00
2023-09-23T06:55:58.059Z,12.10
2023-09-23T06:58:24.994Z,12.10
2023-09-23T07:00:52.064Z,12.20
2023-09-23T07:03:19.259Z,12.20
2023-09-23T07:05:47.176Z,12.20
2023-09-23T07:08:15.081Z,12.30
2023-09-23T07:10:42.523Z,12.40
2023-09-23T07:13:13.202Z,12.50
2023-09-23T07:15:41.617Z,12.60
2023-09-23T07:18:09.493Z,12.60
2023-09-23T07:20:36.824Z,12.70
2023-09-23T07:23:04.006Z,12.70
2023-09-23T07:25:31.402Z,12.80
2023-09-23T07:28:01.408Z,12.80
2023-09-23T07:30:28.523Z,12.90
2023-09-23T07:32:55.427Z,13.00
2023-09-23T07:35:22.333Z,13.00
2023-09-23T07:37:49.357Z,13.10
2023-09-23T07:40:16.634Z,13.20
2023-09-23T07:42:43.543Z,13.30
2023-09-23T07:45:11.036Z,13.30
2023-09-23T07:47:38.066Z,13.40
2023-09-23T07:50:05.520Z,13.50
2023-09-23T07:52:41.783Z,13.60
2023-09-23T07:55:09.157Z,13.60
2023-09-23T07:57:36.247Z,13.60
2023-09-23T08:00:04.460Z,13.60
2023-09-23T08:02:31.443Z,13.70
2023-09-23T08:04:58.496Z,13.70
2023-09-23T08:07:26.026Z,13.90
2023-09-23T08:09:53.196Z,13.90
2023-09-23T08:12:20.063Z,14.00
2023-09-23T08:14:46.987Z,14.10
2023-09-23T08:17:15.687Z,14.20
2023-09-23T08:19:42.731Z,14.40
2023-09-23T08:22:11.536Z,14.60
2023-09-23T08:24:41.193Z,14.70
2023-09-23T08:27:08.109Z,14.80
2023-09-23T08:29:35.081Z,14.90
2023-09-23T08:32:02.606Z,15.00
2023-09-23T08:34:29.682Z,15.10
2023-09-23T08:36:56.591Z,15.10
2023-09-23T08:39:23.509Z,15.20
2023-09-23T08:41:53.564Z,15.30
2023-09-23T08:44:24.885Z,15.20
2023-09-23T08:46:53.189Z,15.10
2023-09-23T08:49:23.190Z,15.00
2023-09-23T08:51:58.002Z,15.00
2023-09-23T08:54:30.140Z,15.00
2023-09-23T08:56:57.539Z,15.10
2023-09-23T08:59:24.657Z,15.10
2023-09-23T09:01:51.675Z,15.10
2023-09-23T09:04:18.671Z,15.10
2023-09-23T09:06:50.039Z,15.10
2023-09-23T09:09:20.664Z,15.10
2023-09-23T09:11:53.156Z,15.20
2023-09-23T09:14:20.218Z,15.30
2023-09-23T09:16:47.282Z,15.40
2023-09-23T09:19:14.481Z,15.40
2023-09-23T09:21:42.566Z,15.50
2023-09-23T09:24:12.727Z,15.50
2023-09-23T09:26:39.727Z,15.60
2023-09-23T09:29:06.936Z,15.70
2023-09-23T09:31:36.363Z,15.80
2023-09-23T09:34:10.895Z,15.90
2023-09-23T09:36:39.844Z,15.90
2023-09-23T09:39:09.629Z,16.00
2023-09-23T09:42:01.692Z,16.10
2023-09-23T09:44:30.170Z,16.20
2023-09-23T09:46:58.246Z,16.20
2023-09-23T09:49:25.867Z,16.40
2023-09-23T09:51:53.361Z,16.70
2023-09-23T09:54:26.465Z,16.90
2023-09-23T09:56:57.034Z,17.30
2023-09-23T09:59:28.559Z,17.50
2023-09-23T10:02:00.717Z,17.60
2023-09-23T10:04:33.230Z,17.80
2023-09-23T10:07:00.406Z,18.20
2023-09-23T10:09:31.612Z,19.30
2023-09-23T14:55:16.442Z,15.70
2023-09-23T14:57:44.487Z,14.80
2023-09-23T15:00:12.212Z,14.40
2023-09-23T15:02:41.642Z,14.00
2023-09-23T15:05:10.982Z,13.80
2023-09-23T15:07:38.139Z,13.70
2023-09-23T15:10:06.757Z,13.60
2023-09-23T15:12:36.851Z,13.70
2023-09-23T15:15:08.115Z,13.80
2023-09-23T15:17:39.628Z,14.00
2023-09-23T15:20:11.730Z,14.30
2023-09-23T15:22:39.877Z,14.60
2023-09-23T15:25:10.887Z,14.90
2023-09-23T15:27:38.679Z,15.10
2023-09-23T15:30:14.281Z,15.40
2023-09-23T15:32:41.275Z,15.50
2023-09-23T15:35:09.189Z,15.60
2023-09-23T15:37:36.565Z,15.70
2023-09-23T15:40:05.236Z,15.70
2023-09-23T15:42:32.995Z,15.70
2023-09-23T15:44:59.868Z,15.70
2023-09-23T15:47:26.894Z,15.70
2023-09-23T15:49:54.253Z,15.70
2023-09-23T15:52:22.759Z,15.50
2023-09-23T15:54:49.721Z,15.50
2023-09-23T15:57:16.885Z,15.50
2023-09-23T15:59:43.874Z,15.50
2023-09-23T16:02:10.883Z,15.40
2023-09-23T16:04:37.814Z,15.40
2023-09-23T16:07:05.057Z,15.40
2023-09-23T16:09:32.563Z,15.30
2023-09-23T16:11:59.489Z,15.20
2023-09-23T16:14:26.516Z,15.20
2023-09-23T16:16:53.550Z,15.10
2023-09-23T16:19:23.604Z,15.10
2023-09-23T16:21:51.506Z,15.10
2023-09-23T16:24:18.594Z,15.10
2023-09-23T16:26:45.567Z,15.10
2023-09-23T16:29:12.623Z,15.00
2023-09-23T16:31:41.779Z,15.00
2023-09-23T16:37:19.769Z,14.80
2023-09-23T16:39:46.900Z,14.80
2023-09-23T16:42:13.824Z,14.70
2023-09-23T16:44:44.107Z,14.70
2023-09-23T16:47:12.639Z,14.70
2023-09-23T16:49:39.717Z,14.60
2023-09-23T16:52:09.219Z,14.70
2023-09-23T16:54:40.682Z,14.60
2023-09-23T16:57:07.715Z,14.60
2023-09-23T16:59:34.618Z,14.60
2023-09-23T17:02:01.556Z,14.40
2023-09-23T17:04:28.818Z,14.40
2023-09-23T17:06:55.718Z,14.20
2023-09-23T17:09:22.628Z,14.10
2023-09-23T17:11:50.677Z,14.00
2023-09-23T17:14:17.696Z,13.80
2023-09-23T17:16:44.714Z,13.70
2023-09-23T17:19:11.720Z,13.60
2023-09-23T17:21:38.761Z,13.40
2023-09-23T17:24:05.864Z,13.40
2023-09-23T17:26:32.862Z,13.40
2023-09-23T17:29:00.690Z,13.40
2023-09-23T17:31:28.170Z,13.30
2023-09-23T17:33:55.627Z,13.30
2023-09-23T17:36:22.552Z,13.30
2023-09-23T17:38:49.819Z,13.30
2023-09-23T17:41:19.592Z,13.30
2023-09-23T17:43:46.530Z,13.30
2023-09-23T17:46:13.512Z,13.30
2023-09-23T17:48:40.528Z,13.30
2023-09-23T17:51:07.857Z,13.30
2023-09-23T17:53:36.072Z,13.30
2023-09-23T17:56:03.896Z,13.20
2023-09-23T17:58:31.101Z,13.20
2023-09-23T18:00:58.100Z,13.10
2023-09-23T18:03:27.504Z,13.10
2023-09-23T18:05:55.386Z,13.10
2023-09-23T18:08:22.466Z,13.10
2023-09-23T18:10:51.194Z,13.10
2023-09-23T18:13:18.094Z,13.20
2023-09-23T18:15:45.132Z,13.20
2023-09-23T18:18:12.134Z,13.20
2023-09-23T18:20:41.358Z,13.20
2023-09-23T18:23:09.082Z,13.30
2023-09-23T18:25:37.204Z,13.30
2023-09-23T18:28:04.806Z,13.30
2023-09-23T18:30:32.938Z,13.30
2023-09-23T18:32:59.960Z,13.30
2023-09-23T18:35:27.110Z,13.30
2023-09-23T18:37:54.137Z,13.30
2023-09-23T18:40:21.007Z,13.30
2023-09-23T18:42:48.270Z,13.40
2023-09-23T18:45:15.236Z,13.40
2023-09-23T18:47:42.645Z,13.40
2023-09-23T18:50:11.009Z,13.40
2023-09-23T18:52:38.970Z,13.40
2023-09-23T18:55:06.254Z,13.40
2023-09-23T18:57:33.626Z,13.40
2023-09-23T19:00:00.517Z,13.40
2023-09-23T19:02:27.599Z,13.30
2023-09-23T19:04:55.000Z,13.20
2023-09-23T19:07:21.865Z,13.20
2023-09-23T19:09:50.154Z,13.10
2023-09-23T19:12:17.047Z,13.10
2023-09-23T19:14:44.048Z,13.00
2023-09-23T19:17:11.409Z,12.90
2023-09-23T19:19:38.394Z,12.90
2023-09-23T19:22:05.675Z,12.80
2023-09-23T19:24:32.556Z,12.80
2023-09-23T19:27:01.427Z,12.70
2023-09-23T19:29:28.382Z,12.70
2023-09-23T19:31:57.076Z,12.70
2023-09-23T19:34:27.571Z,12.60
2023-09-23T19:36:57.040Z,12.60
2023-09-23T19:39:29.550Z,12.50
2023-09-23T19:41:57.627Z,12.50
2023-09-23T19:44:24.605Z,12.50
2023-09-23T19:46:52.790Z,12.50
2023-09-23T19:49:19.709Z,12.50
2023-09-23T19:51:46.618Z,12.50
2023-09-23T19:54:13.911Z,12.40
2023-09-23T19:56:40.876Z,12.40
2023-09-23T19:59:08.441Z,12.30
2023-09-23T20:01:35.840Z,12.30
2023-09-23T20:04:02.873Z,12.30
2023-09-23T20:06:30.549Z,12.20
2023-09-23T20:08:58.018Z,12.20
2023-09-23T20:11:25.529Z,12.20
2023-09-23T20:13:55.440Z,12.20
2023-09-23T20:16:24.215Z,12.20
2023-09-23T20:18:51.966Z,12.20
2023-09-23T20:21:18.856Z,12.20
2023-09-23T20:23:45.926Z,12.30
2023-09-23T20:26:13.842Z,12.30
2023-09-23T20:28:41.797Z,12.30
2023-09-23T20:31:08.837Z,12.40
2023-09-23T20:33:35.762Z,12.40
2023-09-23T20:36:02.787Z,12.40
2023-09-23T20:38:29.991Z,12.40
2023-09-23T20:41:03.979Z,12.40
2023-09-23T20:43:31.888Z,12.40
2023-09-23T20:45:59.006Z,12.30
2023-09-23T20:48:26.099Z,12.30
2023-09-23T20:50:53.223Z,12.20
2023-09-23T20:53:20.331Z,12.20
2023-09-23T20:55:47.281Z,12.20
2023-09-23T20:58:14.250Z,12.20
2023-09-23T21:00:41.222Z,12.10
2023-09-23T21:03:10.100Z,12.10
2023-09-23T21:05:37.454Z,12.10
2023-09-23T21:08:04.554Z,12.10
2023-09-23T21:10:32.304Z,12.10
2023-09-23T21:12:59.189Z,12.00
2023-09-23T21:15:26.087Z,12.00
2023-09-23T21:17:54.131Z,12.00
2023-09-23T21:20:22.585Z,12.00
2023-09-23T21:22:49.541Z,12.00
2023-09-23T21:25:17.275Z,12.00
2023-09-23T21:27:44.186Z,12.00
2023-09-23T21:30:11.510Z,11.90
2023-09-23T21:32:38.499Z,11.90
2023-09-23T21:35:08.655Z,11.90
2023-09-23T21:37:35.635Z,11.80
2023-09-23T21:40:02.683Z,11.80
2023-09-23T21:42:29.605Z,11.80
2023-09-23T21:44:56.630Z,11.80
2023-09-23T21:47:23.571Z,11.70
2023-09-23T21:49:50.586Z,11.80
2023-09-23T21:52:17.407Z,11.80
2023-09-23T21:54:44.356Z,11.80
2023-09-23T21:57:11.547Z,11.80
2023-09-23T21:59:38.895Z,11.80
2023-09-23T22:02:08.055Z,11.80
2023-09-23T22:04:35.251Z,11.90
2023-09-23T22:07:02.978Z,11.90
2023-09-23T22:09:30.918Z,12.00
2023-09-23T22:12:00.842Z,12.00
2023-09-23T22:14:27.968Z,12.00
2023-09-23T22:16:55.972Z,12.00
2023-09-23T22:19:23.934Z,12.10
2023-09-23T22:21:52.596Z,12.00
2023-09-23T22:24:22.717Z,12.00
2023-09-23T22:26:54.113Z,12.10
2023-09-23T22:29:21.796Z,12.10
2023-09-23T22:31:48.789Z,12.00
2023-09-23T22:34:15.854Z,12.10
2023-09-23T22:36:42.861Z,12.00
2023-09-23T22:39:13.409Z,12.00
2023-09-23T22:41:40.929Z,12.00
2023-09-23T22:44:08.143Z,11.90
2023-09-23T22:46:36.582Z,11.90
2023-09-23T22:49:03.882Z,11.90
2023-09-23T22:51:31.890Z,11.90
2023-09-23T22:53:58.983Z,11.90
2023-09-23T22:56:26.413Z,11.90
2023-09-23T22:58:53.395Z,11.90
2023-09-23T23:01:20.483Z,11.80
2023-09-23T23:03:47.726Z,11.80
2023-09-23T23:06:15.054Z,11.80
2023-09-23T23:08:42.839Z,11.70
2023-09-23T23:11:10.647Z,11.70
2023-09-23T23:13:38.330Z,11.60
2023-09-23T23:16:10.646Z,11.60
2023-09-23T23:18:38.927Z,11.60
2023-09-23T23:21:05.995Z,11.50
2023-09-23T23:23:32.978Z,11.50
2023-09-23T23:26:05.105Z,11.50
2023-09-23T23:28:34.995Z,11.40
2023-09-23T23:31:02.521Z,11.40
2023-09-23T23:33:29.646Z,11.40
2023-09-23T23:36:00.748Z,11.30
2023-09-23T23:38:31.559Z,11.40
2023-09-23T23:41:02.048Z,11.30
2023-09-23T23:43:28.885Z,11.30
2023-09-23T23:46:00.079Z,11.20
2023-09-23T23:48:31.807Z,11.20
2023-09-23T23:51:07.373Z,11.20
2023-09-23T23:53:35.370Z,11.20
2023-09-23T23:56:06.777Z,11.10
2023-09-23T23:58:34.373Z,11.10
